Time;durP1;ratioP1;P1;durP2;ratioP2;P2;SDS_P1;SDS_P2;PMS_P1;PMS_P2;Temp;Humidity;BMP_temperature;BMP_pressure;BME280_temperature;BME280_humidity;BME280_pressure;Samples;Min_cycle;Max_cycle;Signal;HPM_P1;HPM_P2
2023/12/14 00:00:24;;;;;;;0.32;0.32;;;;;;;14.22;55.86;101019.56;5072389;28;20012;-71
2023/12/14 00:02:49;;;;;;;0.30;0.30;;;;;;;14.27;56.16;101024.25;5079315;28;20047;-70
2023/12/14 00:05:15;;;;;;;0.40;0.40;;;;;;;14.29;54.93;101038.38;5083139;28;20032;-69
2023/12/14 00:07:40;;;;;;;0.50;0.50;;;;;;;14.39;55.14;101039.34;5081997;28;20356;-70
2023/12/14 00:10:06;;;;;;;0.40;0.40;;;;;;;13.93;55.93;101047.69;5070922;28;20119;-70
2023/12/14 00:12:31;;;;;;;0.30;0.30;;;;;;;14.24;55.40;101049.06;5081432;28;20062;-71
2023/12/14 00:14:57;;;;;;;0.40;0.40;;;;;;;14.30;54.78;101054.34;5082747;28;20522;-70
2023/12/14 00:17:22;;;;;;;0.40;0.40;;;;;;;14.14;54.98;101057.81;5081762;28;20043;-70
2023/12/14 00:19:47;;;;;;;0.40;0.40;;;;;;;14.41;54.83;101060.72;5081084;28;20078;-71
2023/12/14 00:22:13;;;;;;;0.45;0.45;;;;;;;13.69;56.92;101067.75;5080100;28;20043;-71
2023/12/14 00:24:38;;;;;;;0.40;0.40;;;;;;;13.47;58.19;101075.66;5088744;28;20027;-71
2023/12/14 00:27:04;;;;;;;0.60;0.60;;;;;;;13.91;55.94;101069.56;5091635;28;20123;-70
2023/12/14 00:29:29;;;;;;;0.30;0.30;;;;;;;13.74;57.60;101075.94;5091802;28;20399;-70
2023/12/14 00:31:54;;;;;;;0.40;0.40;;;;;;;13.32;59.21;101082.63;5091869;28;20064;-69
2023/12/14 00:34:20;;;;;;;0.40;0.40;;;;;;;14.11;56.63;101082.63;5073132;28;20073;-70
2023/12/14 00:36:45;;;;;;;0.28;0.28;;;;;;;13.33;59.02;101086.94;5078340;28;20050;-68
2023/12/14 00:39:10;;;;;;;0.20;0.20;;;;;;;13.58;58.35;101096.41;5071766;28;20375;-70
2023/12/14 00:41:36;;;;;;;0.32;0.32;;;;;;;13.23;59.28;101107.28;5071286;28;20044;-69
2023/12/14 00:44:01;;;;;;;0.43;0.43;;;;;;;13.77;58.72;101107.88;5070961;28;20459;-69
2023/12/14 00:46:27;;;;;;;0.40;0.40;;;;;;;13.06;59.84;101106.34;5071110;28;20051;-71
2023/12/14 00:48:52;;;;;;;0.20;0.20;;;;;;;13.83;56.82;101105.06;5070965;28;20036;-69
2023/12/14 00:51:18;;;;;;;0.35;0.35;;;;;;;14.08;56.40;101104.72;5062188;28;20101;-70
2023/12/14 00:53:43;;;;;;;0.50;0.50;;;;;;;14.66;54.29;101104.44;5070980;28;20514;-69
2023/12/14 00:56:09;;;;;;;0.38;0.38;;;;;;;14.60;54.75;101100.81;5070824;28;20652;-69
2023/12/14 00:58:34;;;;;;;0.35;0.35;;;;;;;14.46;55.16;101117.59;5070868;28;20132;-70
2023/12/14 01:01:00;;;;;;;0.40;0.40;;;;;;;14.91;54.39;101123.78;5068793;28;20060;-69
2023/12/14 01:03:25;;;;;;;0.30;0.30;;;;;;;14.69;54.16;101120.16;5070601;28;20024;-70
2023/12/14 01:05:50;;;;;;;0.40;0.40;;;;;;;13.96;57.36;101123.69;5070588;28;20365;-70
2023/12/14 01:08:16;;;;;;;0.40;0.40;;;;;;;14.23;55.81;101125.81;5061440;28;20055;-71
2023/12/14 01:10:41;;;;;;;0.40;0.40;;;;;;;13.80;57.78;101123.59;5070711;28;20036;-70
2023/12/14 01:13:07;;;;;;;0.25;0.25;;;;;;;13.35;59.15;101125.31;5069379;28;20155;-71
2023/12/14 01:15:33;;;;;;;0.38;0.38;;;;;;;13.63;57.84;101130.81;5071299;28;20028;-69
2023/12/14 01:17:58;;;;;;;0.40;0.40;;;;;;;13.48;58.06;101144.00;5069674;28;20036;-70
2023/12/14 01:20:23;;;;;;;0.40;0.40;;;;;;;13.42;58.69;101144.94;5070526;28;20611;-70
2023/12/14 01:22:49;;;;;;;0.40;0.40;;;;;;;14.40;55.10;101157.25;5070475;28;20515;-70
2023/12/14 01:25:14;;;;;;;0.20;0.20;;;;;;;15.27;52.48;101160.34;5070417;28;20105;-71
2023/12/14 01:27:40;;;;;;;0.30;0.30;;;;;;;14.16;55.81;101166.50;5070872;28;20179;-70
2023/12/14 01:30:05;;;;;;;0.40;0.40;;;;;;;14.43;55.20;101164.03;5070195;28;20369;-70
2023/12/14 01:32:31;;;;;;;0.30;0.30;;;;;;;14.29;56.01;101174.34;5070283;28;20177;-70
2023/12/14 01:34:56;;;;;;;0.30;0.30;;;;;;;13.94;57.01;101187.94;5070036;28;20036;-70
2023/12/14 01:37:21;;;;;;;0.43;0.43;;;;;;;14.12;56.50;101195.06;5068325;28;20157;-71
2023/12/14 01:39:47;;;;;;;0.40;0.40;;;;;;;13.87;57.00;101200.78;5070347;28;20024;-70
2023/12/14 01:42:13;;;;;;;0.40;0.40;;;;;;;13.94;57.85;101201.44;5069346;28;20036;-70
2023/12/14 01:44:38;;;;;;;0.50;0.50;;;;;;;14.07;56.94;101203.06;5068327;28;20051;-69
2023/12/14 01:47:04;;;;;;;0.30;0.30;;;;;;;14.29;56.64;101205.97;5069190;28;20123;-70
2023/12/14 01:49:29;;;;;;;0.32;0.32;;;;;;;12.61;60.67;101217.63;5049939;28;20118;-70
2023/12/14 01:51:55;;;;;;;0.40;0.40;;;;;;;13.49;58.33;101218.50;5050059;28;20427;-70
2023/12/14 01:54:20;;;;;;;0.40;0.40;;;;;;;14.06;57.05;101223.03;5050363;28;20037;-71
2023/12/14 01:56:46;;;;;;;0.45;0.45;;;;;;;13.73;57.14;101218.28;5049942;28;20142;-70
2023/12/14 01:59:11;;;;;;;0.50;0.50;;;;;;;13.81;57.68;101219.78;5065404;28;20583;-70
2023/12/14 02:01:45;;;;;;;0.22;0.22;;;;;;;13.94;57.67;101212.25;5067941;28;20043;-70
2023/12/14 02:04:11;;;;;;;0.40;0.40;;;;;;;13.99;56.79;101214.25;5070058;28;20052;-70
2023/12/14 02:06:37;;;;;;;0.30;0.30;;;;;;;13.96;56.90;101220.13;5070677;28;20063;-70
2023/12/14 02:09:03;;;;;;;0.38;0.38;;;;;;;13.55;57.97;101221.09;5069731;28;20149;-70
2023/12/14 02:11:28;;;;;;;0.30;0.30;;;;;;;13.97;56.68;101230.69;5069974;28;20184;-70
2023/12/14 02:13:53;;;;;;;0.40;0.40;;;;;;;13.54;57.92;101243.75;5069680;28;20043;-70
2023/12/14 02:16:19;;;;;;;0.28;0.28;;;;;;;13.70;57.66;101251.16;5069863;28;20059;-72
2023/12/14 02:18:45;;;;;;;0.43;0.43;;;;;;;12.53;60.51;101261.06;5070012;28;20100;-70
2023/12/14 02:21:10;;;;;;;0.32;0.32;;;;;;;14.13;56.06;101258.88;5070155;28;20733;-70
2023/12/14 02:23:43;;;;;;;0.22;0.22;;;;;;;12.58;59.81;101259.34;5069815;28;20040;-69
2023/12/14 02:26:08;;;;;;;0.30;0.30;;;;;;;12.79;61.31;101271.50;5069955;28;20075;-70
2023/12/14 02:28:33;;;;;;;0.30;0.30;;;;;;;13.30;59.08;101279.06;5069809;28;20127;-70
2023/12/14 02:30:59;;;;;;;0.20;0.20;;;;;;;13.93;56.83;101270.06;5073396;28;20032;-70
2023/12/14 02:33:24;;;;;;;0.30;0.30;;;;;;;13.72;57.39;101272.53;5074097;28;20115;-70
2023/12/14 02:35:49;;;;;;;0.20;0.20;;;;;;;13.29;58.84;101280.94;5068419;28;20112;-71
2023/12/14 02:38:15;;;;;;;0.30;0.30;;;;;;;13.42;58.43;101291.53;5053549;28;20045;-71
2023/12/14 02:40:40;;;;;;;0.40;0.40;;;;;;;13.79;56.15;101284.88;5053776;28;20045;-70
2023/12/14 02:43:05;;;;;;;0.50;0.50;;;;;;;14.05;55.74;101283.56;5057288;28;20035;-71
2023/12/14 02:45:31;;;;;;;0.40;0.40;;;;;;;12.35;61.10;101294.28;5073815;28;20034;-70
2023/12/14 02:47:56;;;;;;;0.30;0.30;;;;;;;12.86;60.18;101291.94;5073553;28;20124;-70
2023/12/14 02:50:21;;;;;;;0.47;0.47;;;;;;;13.81;56.20;101295.44;5073025;28;20135;-70
2023/12/14 02:52:47;;;;;;;0.25;0.25;;;;;;;14.29;54.55;101292.47;5073134;28;20500;-71
2023/12/14 02:55:12;;;;;;;0.30;0.30;;;;;;;13.29;56.95;101299.84;5073030;28;20036;-71
2023/12/14 02:57:37;;;;;;;0.57;0.57;;;;;;;14.35;54.49;101313.97;5073495;28;20070;-70
2023/12/14 03:00:03;;;;;;;0.30;0.30;;;;;;;13.21;59.11;101313.66;5073068;28;20170;-71
2023/12/14 03:02:29;;;;;;;0.43;0.43;;;;;;;13.27;58.28;101320.84;5078653;28;20036;-70
2023/12/14 03:04:54;;;;;;;0.32;0.32;;;;;;;13.97;55.56;101327.16;5093009;28;20047;-71
2023/12/14 03:07:19;;;;;;;0.40;0.40;;;;;;;14.13;55.09;101318.34;5093217;28;20038;-71
2023/12/14 03:09:45;;;;;;;0.25;0.25;;;;;;;13.27;56.73;101326.22;5093225;28;20039;-70
2023/12/14 03:12:11;;;;;;;0.40;0.40;;;;;;;13.94;56.72;101322.19;5075411;28;20329;-69
2023/12/14 03:14:36;;;;;;;0.30;0.30;;;;;;;14.48;54.12;101329.94;5093092;28;20039;-70
2023/12/14 03:17:02;;;;;;;0.20;0.20;;;;;;;13.10;58.31;101328.78;5093140;28;20170;-70
2023/12/14 03:19:27;;;;;;;0.30;0.30;;;;;;;13.80;56.67;101328.88;5092930;28;20063;-69
2023/12/14 03:21:53;;;;;;;0.30;0.30;;;;;;;13.10;58.47;101344.97;5074767;28;20027;-70
2023/12/14 03:24:18;;;;;;;0.20;0.20;;;;;;;12.21;61.59;101347.50;5074729;28;20042;-69
2023/12/14 03:26:43;;;;;;;0.40;0.40;;;;;;;11.78;63.31;101340.47;5092895;28;20241;-70
2023/12/14 03:29:09;;;;;;;0.20;0.20;;;;;;;12.26;62.02;101349.53;5092430;28;20040;-70
2023/12/14 03:31:35;;;;;;;0.40;0.40;;;;;;;13.83;56.44;101350.06;5090653;28;20043;-70
2023/12/14 03:34:00;;;;;;;0.40;0.40;;;;;;;12.86;59.34;101361.25;5052547;28;20037;-70
2023/12/14 03:36:27;;;;;;;0.30;0.30;;;;;;;13.14;57.97;101353.44;5052805;28;20497;-70
2023/12/14 03:38:52;;;;;;;0.30;0.30;;;;;;;13.23;58.39;101355.56;5050479;28;20045;-70
2023/12/14 03:41:18;;;;;;;0.20;0.20;;;;;;;12.99;57.70;101364.59;5066593;28;20044;-70
2023/12/14 03:43:44;;;;;;;0.30;0.30;;;;;;;13.80;56.28;101359.44;5072051;28;20039;-70
2023/12/14 03:46:09;;;;;;;0.40;0.40;;;;;;;13.18;58.55;101357.31;5072251;28;20189;-71
2023/12/14 03:48:35;;;;;;;0.30;0.30;;;;;;;12.46;61.11;101374.38;5072712;28;20420;-70
2023/12/14 03:51:05;;;;;;;0.30;0.30;;;;;;;13.85;56.70;101372.25;5082073;28;20155;-71
2023/12/14 03:53:31;;;;;;;0.40;0.40;;;;;;;12.09;62.30;101376.22;5090319;28;20488;-70
2023/12/14 03:55:58;;;;;;;0.40;0.40;;;;;;;11.26;66.21;101390.09;5072263;28;20127;-70
2023/12/14 03:58:23;;;;;;;0.25;0.25;;;;;;;11.54;65.16;101378.94;5072044;28;20066;-70
2023/12/14 04:00:48;;;;;;;0.30;0.30;;;;;;;12.38;60.89;101381.94;5071795;28;20626;-68
2023/12/14 04:03:14;;;;;;;0.50;0.50;;;;;;;13.74;56.29;101379.28;5092613;28;20036;-69
2023/12/14 04:05:39;;;;;;;0.30;0.30;;;;;;;13.66;56.51;101368.81;5092148;28;20197;-70
2023/12/14 04:08:05;;;;;;;0.28;0.28;;;;;;;12.69;59.58;101374.53;5091911;28;20044;-70
2023/12/14 04:10:30;;;;;;;0.30;0.30;;;;;;;13.33;58.60;101373.91;5091898;28;20127;-70
2023/12/14 04:12:55;;;;;;;0.20;0.20;;;;;;;12.85;57.78;101376.63;5092049;28;20062;-70
2023/12/14 04:15:21;;;;;;;0.32;0.32;;;;;;;12.96;58.18;101380.41;5092511;28;20071;-70
2023/12/14 04:17:46;;;;;;;0.30;0.30;;;;;;;12.89;58.71;101387.78;5092101;28;20476;-70
2023/12/14 04:20:13;;;;;;;0.30;0.30;;;;;;;13.64;56.83;101378.22;5073568;28;20024;-70
2023/12/14 04:22:38;;;;;;;0.30;0.30;;;;;;;13.97;54.92;101383.91;5092058;28;20611;-71
2023/12/14 04:25:04;;;;;;;0.30;0.30;;;;;;;13.92;54.72;101390.00;5073439;28;20044;-70
2023/12/14 04:27:30;;;;;;;0.30;0.30;;;;;;;13.44;56.26;101386.63;5092337;28;20039;-70
2023/12/14 04:29:55;;;;;;;0.30;0.30;;;;;;;13.19;56.67;101397.56;5054770;28;20488;-71
2023/12/14 04:32:21;;;;;;;0.40;0.40;;;;;;;13.86;54.55;101401.72;5051440;28;20035;-71
2023/12/14 04:34:46;;;;;;;0.50;0.50;;;;;;;13.84;54.47;101401.13;5051263;28;20036;-70
2023/12/14 04:37:12;;;;;;;0.20;0.20;;;;;;;13.58;55.28;101406.16;5063456;28;20045;-71
2023/12/14 04:39:37;;;;;;;0.30;0.30;;;;;;;13.71;54.97;101424.84;5071586;28;20427;-71
2023/12/14 04:42:03;;;;;;;0.30;0.30;;;;;;;13.73;54.52;101422.72;5071134;28;20492;-70
2023/12/14 04:44:28;;;;;;;0.40;0.40;;;;;;;11.94;59.15;101437.69;5055689;28;20040;-71
2023/12/14 04:46:53;;;;;;;0.40;0.40;;;;;;;13.15;56.30;101438.72;5058227;28;20115;-71
2023/12/14 04:49:19;;;;;;;0.20;0.20;;;;;;;13.07;56.42;101447.16;5071395;28;20044;-70
2023/12/14 04:51:45;;;;;;;0.45;0.45;;;;;;;12.94;56.88;101447.25;5070965;28;20037;-70
2023/12/14 04:54:10;;;;;;;0.43;0.43;;;;;;;13.31;55.88;101448.03;5071562;28;20514;-70
2023/12/14 04:56:36;;;;;;;0.20;0.20;;;;;;;13.71;54.55;101443.75;5070769;28;20064;-70
2023/12/14 04:59:01;;;;;;;0.40;0.40;;;;;;;14.03;52.61;101443.22;5070735;28;20036;-70
2023/12/14 05:01:26;;;;;;;0.20;0.20;;;;;;;13.85;53.06;101448.72;5068499;28;20170;-70
2023/12/14 05:03:55;;;;;;;0.35;0.35;;;;;;;13.98;53.25;101462.03;5070491;28;20081;-71
2023/12/14 05:06:20;;;;;;;0.45;0.45;;;;;;;13.71;53.29;101466.19;5070540;28;20060;-70
2023/12/14 05:08:46;;;;;;;0.40;0.40;;;;;;;14.12;51.96;101473.44;5070150;28;20515;-71
2023/12/14 05:11:14;;;;;;;0.30;0.30;;;;;;;14.08;51.56;101483.91;5070011;28;20052;-70
2023/12/14 05:13:40;;;;;;;0.40;0.40;;;;;;;13.93;52.78;101488.94;5070136;28;20028;-70
2023/12/14 05:16:06;;;;;;;0.30;0.30;;;;;;;14.49;51.13;101483.03;5070330;28;20680;-70
2023/12/14 05:18:32;;;;;;;0.20;0.20;;;;;;;13.99;52.07;101497.97;5070674;28;20028;-69
2023/12/14 05:20:57;;;;;;;0.30;0.30;;;;;;;12.55;56.24;101502.44;5070385;28;20033;-69
2023/12/14 05:23:23;;;;;;;0.30;0.30;;;;;;;13.65;53.04;101514.88;5070520;28;20151;-70
2023/12/14 05:25:49;;;;;;;0.43;0.43;;;;;;;14.30;51.24;101521.22;5054951;28;20389;-70
2023/12/14 05:28:14;;;;;;;0.30;0.30;;;;;;;14.49;50.59;101520.03;5050334;28;20119;-70
2023/12/14 05:30:40;;;;;;;0.20;0.20;;;;;;;14.38;51.24;101520.88;5050896;28;20106;-69
2023/12/14 05:33:05;;;;;;;0.20;0.20;;;;;;;13.73;52.24;101526.22;5059786;28;20086;-71
2023/12/14 05:35:30;;;;;;;0.30;0.30;;;;;;;13.52;53.13;101539.38;5070208;28;20044;-70
2023/12/14 05:37:56;;;;;;;0.30;0.30;;;;;;;13.50;54.20;101547.72;5070324;28;20131;-71
2023/12/14 05:40:21;;;;;;;0.30;0.30;;;;;;;12.84;55.36;101549.44;5070496;28;20037;-69
2023/12/14 05:42:46;;;;;;;0.20;0.20;;;;;;;12.33;57.41;101541.63;5070061;28;20456;-68
2023/12/14 05:45:12;;;;;;;0.40;0.40;;;;;;;13.65;53.75;101547.28;5070065;28;20656;-70
2023/12/14 05:47:38;;;;;;;0.30;0.30;;;;;;;13.61;53.39;101549.63;5064823;28;20536;-70
2023/12/14 05:50:04;;;;;;;0.30;0.30;;;;;;;13.75;52.88;101547.56;5070639;28;20131;-70
2023/12/14 05:52:30;;;;;;;0.30;0.30;;;;;;;13.64;52.71;101561.88;5078734;28;20036;-70
2023/12/14 05:54:56;;;;;;;0.35;0.35;;;;;;;13.77;52.42;101558.97;5078196;28;20526;-71
2023/12/14 05:57:21;;;;;;;0.30;0.30;;;;;;;13.69;51.76;101570.94;5078873;28;20086;-71
2023/12/14 05:59:46;;;;;;;0.30;0.30;;;;;;;12.23;56.69;101570.91;5080273;28;20122;-71
2023/12/14 06:02:12;;;;;;;0.47;0.47;;;;;;;12.77;54.01;101575.66;5074686;28;20037;-70
2023/12/14 06:04:37;;;;;;;0.20;0.20;;;;;;;13.07;54.99;101580.16;5079260;28;20024;-70
2023/12/14 06:07:03;;;;;;;0.30;0.30;;;;;;;13.42;52.73;101588.50;5080787;28;20048;-70
2023/12/14 06:09:34;;;;;;;0.30;0.30;;;;;;;13.96;51.38;101595.69;5083059;28;20033;-71
2023/12/14 06:12:02;;;;;;;0.28;0.28;;;;;;;14.39;50.08;101590.09;5078869;28;20495;-70
2023/12/14 06:14:27;;;;;;;0.30;0.30;;;;;;;14.13;50.65;101586.72;5069879;28;20051;-70
2023/12/14 06:16:53;;;;;;;0.20;0.20;;;;;;;14.30;49.81;101595.03;5065895;28;20123;-70
2023/12/14 06:19:18;;;;;;;0.28;0.28;;;;;;;12.42;56.36;101604.16;5069999;28;20037;-70
2023/12/14 06:21:44;;;;;;;0.30;0.30;;;;;;;12.38;56.10;101609.97;5056876;28;20079;-69
2023/12/14 06:24:09;;;;;;;0.30;0.30;;;;;;;13.35;53.50;101614.75;5053732;28;20036;-70
2023/12/14 06:26:34;;;;;;;0.30;0.30;;;;;;;14.19;50.90;101616.59;5078207;28;20038;-70
2023/12/14 06:29:00;;;;;;;0.30;0.30;;;;;;;13.87;51.62;101622.22;5065278;28;20095;-72
2023/12/14 06:31:25;;;;;;;0.22;0.22;;;;;;;13.68;51.74;101630.59;5049535;28;20049;-70
2023/12/14 06:33:50;;;;;;;0.30;0.30;;;;;;;13.71;53.11;101633.66;5065938;28;20119;-71
2023/12/14 06:36:17;;;;;;;0.40;0.40;;;;;;;14.04;50.98;101636.75;5060509;28;20190;-70
2023/12/14 06:38:43;;;;;;;0.30;0.30;;;;;;;14.50;49.91;101641.53;5069651;28;20040;-70
2023/12/14 06:41:08;;;;;;;0.30;0.30;;;;;;;14.42;49.57;101651.84;5069658;28;20060;-70
2023/12/14 06:43:34;;;;;;;0.40;0.40;;;;;;;13.39;53.80;101651.03;5072303;28;20046;-70
2023/12/14 06:46:00;;;;;;;0.25;0.25;;;;;;;13.63;52.99;101654.72;5077289;28;20024;-70
2023/12/14 06:48:25;;;;;;;0.20;0.20;;;;;;;14.22;50.77;101656.69;5070329;28;20033;-70
2023/12/14 06:50:50;;;;;;;0.30;0.30;;;;;;;14.52;49.94;101654.81;5077000;28;20115;-71
2023/12/14 06:53:16;;;;;;;0.50;0.50;;;;;;;14.36;50.35;101650.06;5090003;28;20109;-69
2023/12/14 06:55:41;;;;;;;0.20;0.20;;;;;;;14.30;50.08;101653.69;5069816;28;20127;-70
2023/12/14 06:58:11;;;;;;;0.40;0.40;;;;;;;14.38;49.84;101646.09;5073417;28;20064;-70
2023/12/14 07:00:37;;;;;;;0.38;0.38;;;;;;;13.41;53.26;101651.66;5080274;28;20389;-70
2023/12/14 07:03:03;;;;;;;0.30;0.30;;;;;;;13.67;52.07;101648.66;5077136;28;20047;-70
2023/12/14 07:05:28;;;;;;;0.40;0.40;;;;;;;12.48;55.90;101658.00;5079546;28;20124;-70
2023/12/14 07:07:54;;;;;;;0.43;0.43;;;;;;;12.00;58.42;101676.53;5089570;28;20078;-71
2023/12/14 07:10:19;;;;;;;0.30;0.30;;;;;;;13.77;52.97;101681.38;5089038;28;20519;-70
2023/12/14 07:12:44;;;;;;;0.30;0.30;;;;;;;13.45;53.51;101682.56;5072588;28;20054;-69
2023/12/14 07:15:10;;;;;;;0.30;0.30;;;;;;;14.30;50.92;101686.97;5069945;28;20056;-71
2023/12/14 07:17:35;;;;;;;0.30;0.30;;;;;;;14.13;51.43;101696.75;5056189;28;20135;-70
2023/12/14 07:20:00;;;;;;;0.28;0.28;;;;;;;14.08;51.48;101697.41;5052990;28;20045;-71
2023/12/14 07:22:26;;;;;;;0.47;0.47;;;;;;;13.92;52.28;101700.72;5067740;28;20033;-70
2023/12/14 07:24:51;;;;;;;0.30;0.30;;;;;;;14.28;50.88;101704.47;5056103;28;20077;-69
2023/12/14 07:27:16;;;;;;;0.30;0.30;;;;;;;13.43;53.13;101700.84;5075823;28;20059;-70
2023/12/14 07:29:42;;;;;;;0.30;0.30;;;;;;;13.99;51.18;101711.47;5077812;28;20079;-71
2023/12/14 07:32:07;;;;;;;0.32;0.32;;;;;;;13.38;53.66;101714.19;5092215;28;20074;-71
2023/12/14 07:34:32;;;;;;;0.32;0.32;;;;;;;14.25;50.82;101716.53;5074552;28;20122;-70
2023/12/14 07:36:58;;;;;;;0.30;0.30;;;;;;;13.81;52.25;101731.22;5074091;28;20051;-70
2023/12/14 07:39:23;;;;;;;0.20;0.20;;;;;;;13.93;51.94;101732.13;5063960;28;20532;-71
2023/12/14 07:41:48;;;;;;;0.40;0.40;;;;;;;13.65;52.59;101736.34;5072698;28;20498;-72
2023/12/14 07:44:14;;;;;;;0.50;0.50;;;;;;;13.59;52.79;101737.25;5072457;28;20123;-70
2023/12/14 07:46:41;;;;;;;0.20;0.20;;;;;;;14.21;50.87;101736.94;5072286;28;20112;-70
2023/12/14 07:49:07;;;;;;;0.30;0.30;;;;;;;14.36;50.50;101747.41;5071923;28;20560;-70
2023/12/14 07:51:32;;;;;;;0.40;0.40;;;;;;;14.20;50.69;101756.09;5072321;28;20048;-70
2023/12/14 07:53:58;;;;;;;0.20;0.20;;;;;;;14.08;50.56;101756.03;5071729;28;20143;-70
2023/12/14 07:56:27;;;;;;;0.20;0.20;;;;;;;14.40;50.16;101764.84;5072124;28;20127;-70
2023/12/14 07:58:52;;;;;;;0.40;0.40;;;;;;;13.25;53.09;101768.28;5072191;28;20041;-71
2023/12/14 08:01:17;;;;;;;0.20;0.20;;;;;;;13.76;51.17;101771.56;5071872;28;20071;-70
2023/12/14 08:03:43;;;;;;;0.30;0.30;;;;;;;14.27;49.73;101776.59;5088220;28;20063;-69
2023/12/14 08:06:08;;;;;;;0.28;0.28;;;;;;;13.96;50.53;101777.59;5092487;28;20067;-70
2023/12/14 08:08:33;;;;;;;0.30;0.30;;;;;;;14.15;50.40;101786.53;5092222;28;20055;-70
2023/12/14 08:10:59;;;;;;;0.30;0.30;;;;;;;13.56;51.82;101786.31;5091929;28;20113;-70
2023/12/14 08:13:24;;;;;;;0.20;0.20;;;;;;;13.44;53.17;101796.19;5080588;28;20116;-71
2023/12/14 08:15:49;;;;;;;0.20;0.20;;;;;;;14.23;50.52;101801.63;5058696;28;20055;-69
2023/12/14 08:18:14;;;;;;;0.35;0.35;;;;;;;12.87;54.44;101806.13;5072231;28;20104;-70
2023/12/14 08:20:40;;;;;;;0.30;0.30;;;;;;;13.67;52.77;101812.59;5071660;28;20115;-70
2023/12/14 08:23:05;;;;;;;0.20;0.20;;;;;;;13.35;52.90;101816.38;5071380;28;20123;-70
2023/12/14 08:25:31;;;;;;;0.30;0.30;;;;;;;12.73;55.92;101809.94;5071748;28;20043;-69
2023/12/14 08:27:56;;;;;;;0.20;0.20;;;;;;;13.18;54.29;101808.00;5071340;28;20037;-70
2023/12/14 08:30:23;;;;;;;0.38;0.38;;;;;;;13.55;52.81;101812.50;5072079;28;20020;-70
2023/12/14 08:32:49;;;;;;;0.38;0.38;;;;;;;14.07;51.14;101808.47;5071272;28;20068;-70
2023/12/14 08:35:14;;;;;;;0.30;0.30;;;;;;;13.55;53.28;101820.59;5071274;28;20068;-71
2023/12/14 08:37:40;;;;;;;0.47;0.47;;;;;;;14.12;51.18;101811.31;5071214;28;20154;-71
2023/12/14 08:40:07;;;;;;;0.32;0.32;;;;;;;14.15;51.13;101813.56;5068090;28;20033;-70
2023/12/14 08:42:32;;;;;;;0.30;0.30;;;;;;;13.77;52.05;101816.44;5071681;28;20074;-69
2023/12/14 08:44:57;;;;;;;0.30;0.30;;;;;;;14.01;52.01;101820.16;5071176;28;20052;-69
2023/12/14 08:47:23;;;;;;;0.30;0.30;;;;;;;14.32;50.65;101824.63;5071421;28;20113;-70
2023/12/14 08:49:48;;;;;;;0.30;0.30;;;;;;;13.92;51.13;101827.72;5071144;28;20067;-72
2023/12/14 08:52:14;;;;;;;0.30;0.30;;;;;;;14.07;50.16;101844.41;5068312;28;20040;-70
2023/12/14 08:54:40;;;;;;;0.22;0.22;;;;;;;13.19;53.58;101850.13;5071920;28;20369;-69
2023/12/14 08:57:05;;;;;;;0.20;0.20;;;;;;;14.01;51.88;101856.09;5071032;28;20059;-70
2023/12/14 08:59:31;;;;;;;0.20;0.20;;;;;;;13.88;51.00;101856.25;5071112;28;20053;-70
2023/12/14 09:01:56;;;;;;;0.40;0.40;;;;;;;13.99;50.85;101868.22;5080228;28;20044;-71
2023/12/14 09:04:21;;;;;;;0.30;0.30;;;;;;;12.75;54.54;101864.47;5091254;28;20115;-70
2023/12/14 09:06:47;;;;;;;0.30;0.30;;;;;;;14.34;49.84;101868.50;5090978;28;20043;-69
2023/12/14 09:09:12;;;;;;;0.22;0.22;;;;;;;14.44;49.27;101863.38;5089171;28;20036;-70
2023/12/14 09:11:38;;;;;;;0.40;0.40;;;;;;;13.74;50.38;101878.19;5070869;28;20052;-71
2023/12/14 09:14:03;;;;;;;0.40;0.40;;;;;;;13.69;50.60;101883.44;5070672;28;20043;-71
2023/12/14 09:16:28;;;;;;;0.28;0.28;;;;;;;14.05;49.52;101883.53;5070784;28;20041;-70
2023/12/14 09:18:54;;;;;;;0.20;0.20;;;;;;;12.69;51.96;101889.59;5054437;28;20108;-72
2023/12/14 09:21:19;;;;;;;0.40;0.40;;;;;;;12.83;53.21;101887.69;5050845;28;20374;-70
2023/12/14 09:23:44;;;;;;;0.30;0.30;;;;;;;14.28;49.16;101886.44;5050704;28;20123;-71
2023/12/14 09:26:10;;;;;;;0.38;0.38;;;;;;;12.52;51.99;101898.38;5050825;28;20066;-69
2023/12/14 09:28:36;;;;;;;0.32;0.32;;;;;;;12.68;51.65;101905.97;5061156;28;20097;-70
2023/12/14 09:31:02;;;;;;;0.35;0.35;;;;;;;13.54;49.95;101899.94;5070325;28;20024;-70
2023/12/14 09:33:28;;;;;;;0.30;0.30;;;;;;;13.64;49.29;101900.28;5070862;28;20039;-71
2023/12/14 09:35:53;;;;;;;0.30;0.30;;;;;;;12.84;52.02;101897.41;5070376;28;20097;-70
2023/12/14 09:38:19;;;;;;;0.30;0.30;;;;;;;13.38;49.93;101899.66;5070105;28;20044;-69
2023/12/14 09:40:44;;;;;;;0.40;0.40;;;;;;;14.42;48.70;101901.47;5070156;28;20028;-70
2023/12/14 09:43:10;;;;;;;0.30;0.30;;;;;;;14.96;46.77;101906.84;5070582;28;20169;-70
2023/12/14 09:45:38;;;;;;;0.30;0.30;;;;;;;15.40;45.25;101907.50;5071011;28;20028;-70
2023/12/14 09:48:05;;;;;;;0.20;0.20;;;;;;;15.10;45.69;101909.38;5070382;28;20037;-69
2023/12/14 09:50:32;;;;;;;0.30;0.30;;;;;;;15.24;45.85;101917.09;5070412;28;20052;-70
2023/12/14 09:52:57;;;;;;;0.30;0.30;;;;;;;14.93;47.22;101910.03;5070227;28;20078;-69
2023/12/14 09:55:23;;;;;;;0.40;0.40;;;;;;;15.02;47.02;101915.94;5052848;28;20041;-70
2023/12/14 09:57:48;;;;;;;0.30;0.30;;;;;;;15.42;45.88;101918.97;5050230;28;20049;-69
2023/12/14 10:00:33;;;;;;;0.35;0.35;;;;;;;15.49;46.03;101934.06;5050735;28;20116;-70
2023/12/14 10:03:18;;;;;;;0.40;0.40;;;;;;;15.43;45.97;101928.75;5087203;28;20093;-70
2023/12/14 10:05:43;;;;;;;0.30;0.30;;;;;;;15.36;46.25;101938.81;5085842;28;20036;-70
2023/12/14 10:08:09;;;;;;;0.40;0.40;;;;;;;15.31;46.42;101944.91;5069987;28;20500;-70
2023/12/14 10:10:34;;;;;;;0.35;0.35;;;;;;;15.34;46.37;101949.06;5070395;28;20106;-70
2023/12/14 10:12:59;;;;;;;0.30;0.30;;;;;;;14.45;49.36;101948.88;5070082;28;20056;-70
2023/12/14 10:15:26;;;;;;;0.22;0.22;;;;;;;14.92;47.68;101948.97;5066668;28;20105;-70
2023/12/14 10:17:54;;;;;;;0.30;0.30;;;;;;;15.44;46.23;101943.94;5050062;28;20124;-70
2023/12/14 10:20:23;;;;;;;0.32;0.32;;;;;;;15.07;47.42;101953.16;5050007;28;20128;-71
2023/12/14 10:22:50;;;;;;;0.40;0.40;;;;;;;15.29;47.27;101957.06;5049937;28;20548;-69
2023/12/14 10:25:17;;;;;;;0.32;0.32;;;;;;;14.78;47.80;101963.69;5063930;28;20049;-69
2023/12/14 10:27:50;;;;;;;0.38;0.38;;;;;;;14.44;48.56;101967.00;5070079;28;20036;-65
2023/12/14 10:30:16;;;;;;;0.30;0.30;;;;;;;15.17;47.38;101969.72;5070342;28;20028;-70
2023/12/14 10:32:42;;;;;;;0.47;0.47;;;;;;;15.57;45.80;101965.41;5069870;28;20037;-70
2023/12/14 10:35:08;;;;;;;0.40;0.40;;;;;;;15.66;45.59;101977.59;5069628;28;20049;-70
2023/12/14 10:37:37;;;;;;;0.40;0.40;;;;;;;15.42;45.92;101987.53;5069700;28;20471;-69
2023/12/14 10:40:05;;;;;;;0.35;0.35;;;;;;;14.44;48.78;101985.94;5069625;28;20048;-69
2023/12/14 10:42:34;;;;;;;0.20;0.20;;;;;;;15.50;46.49;101986.38;5070249;28;20560;-70
2023/12/14 10:45:02;;;;;;;0.50;0.50;;;;;;;15.31;47.06;101992.84;5069690;28;20070;-70
2023/12/14 10:47:28;;;;;;;0.40;0.40;;;;;;;15.04;47.43;101984.22;5069557;28;20043;-70
2023/12/14 10:49:54;;;;;;;0.25;0.25;;;;;;;15.66;45.93;101981.13;5069668;28;20041;-70
2023/12/14 10:52:22;;;;;;;0.40;0.40;;;;;;;15.67;46.43;101992.78;5073652;28;20047;-70
2023/12/14 10:54:52;;;;;;;0.40;0.40;;;;;;;15.74;45.91;101988.13;5073668;28;20028;-69
2023/12/14 10:57:18;;;;;;;0.32;0.32;;;;;;;15.21;47.18;101981.75;5074183;28;20060;-70
2023/12/14 10:59:43;;;;;;;0.38;0.38;;;;;;;15.17;48.32;101985.94;5073402;28;20040;-71
2023/12/14 11:02:10;;;;;;;0.30;0.30;;;;;;;15.68;47.05;101995.25;5072987;28;20474;-69
2023/12/14 11:04:54;;;;;;;0.30;0.30;;;;;;;14.60;50.18;101990.75;5071709;28;20040;-70
2023/12/14 11:07:47;;;;;;;0.28;0.28;;;;;;;15.34;49.23;101989.69;5073041;28;20113;-71
2023/12/14 11:10:13;;;;;;;0.38;0.38;;;;;;;15.59;48.08;101982.28;5073186;28;20037;-70
2023/12/14 11:12:50;;;;;;;0.43;0.43;;;;;;;15.58;47.30;101995.03;5073571;28;20029;-70
2023/12/14 11:15:21;;;;;;;0.20;0.20;;;;;;;14.89;47.30;101995.44;5070643;28;20149;-69
2023/12/14 11:18:11;;;;;;;0.20;0.20;;;;;;;13.04;52.43;101998.88;5053357;28;20064;-70